Time;durP1;ratioP1;P1;durP2;ratioP2;P2;SDS_P1;SDS_P2;PMS_P1;PMS_P2;Temp;Humidity;BMP_temperature;BMP_pressure;BME280_temperature;BME280_humidity;BME280_pressure;Samples;Min_cycle;Max_cycle;Signal;HPM_P1;HPM_P2
2022/03/20 00:00:26;;;;;;;3.80;2.22;;;;;;;;;;1898238;75;21050;-48
2022/03/20 00:02:55;;;;;;;2.20;1.60;;;;;;;;;;1898274;75;21298;-46
2022/03/20 00:05:24;;;;;;;3.42;1.85;;;;;;;;;;1898147;75;21100;-47
2022/03/20 00:07:53;;;;;;;4.17;2.33;;;;;;;;;;1898048;75;21038;-47
2022/03/20 00:10:23;;;;;;;1.72;1.62;;;;;;;;;;1898084;75;21092;-46
2022/03/20 00:12:52;;;;;;;2.50;2.17;;;;;;;;;;1898097;75;21120;-46
2022/03/20 00:15:21;;;;;;;1.65;1.10;;;;;;;;;;1898194;75;21092;-47
2022/03/20 00:17:50;;;;;;;1.77;1.22;;;;;;;;;;1898232;75;21047;-47
2022/03/20 00:20:19;;;;;;;1.87;1.55;;;;;;;;;;1898222;75;21034;-50
2022/03/20 00:22:47;;;;;;;1.60;1.40;;;;;;;;;;1898152;75;21047;-49
2022/03/20 00:25:16;;;;;;;2.65;1.87;;;;;;;;;;1898229;75;21019;-46
2022/03/20 00:27:45;;;;;;;1.10;1.00;;;;;;;;;;1898048;75;21014;-48
2022/03/20 00:30:14;;;;;;;1.27;1.15;;;;;;;;;;1898130;75;21019;-47
2022/03/20 00:32:44;;;;;;;1.95;1.50;;;;;;;;;;1938086;74;21037;-47
2022/03/20 00:35:13;;;;;;;2.77;2.58;;;;;;;;;;1943139;74;21001;-46
2022/03/20 00:37:41;;;;;;;2.72;2.25;;;;;;;;;;1943134;74;21041;-47
2022/03/20 00:40:10;;;;;;;1.92;1.25;;;;;;;;;;1943255;74;21037;-46
2022/03/20 00:42:39;;;;;;;3.95;3.15;;;;;;;;;;1943091;74;21048;-46
2022/03/20 00:45:08;;;;;;;4.90;3.62;;;;;;;;;;1943177;74;21021;-46
2022/03/20 00:47:37;;;;;;;4.37;3.75;;;;;;;;;;1943095;74;21052;-47
2022/03/20 00:50:06;;;;;;;3.77;3.37;;;;;;;;;;1943158;74;21040;-49
2022/03/20 00:52:35;;;;;;;7.33;4.00;;;;;;;;;;1943129;74;21033;-48
2022/03/20 00:55:07;;;;;;;2.95;2.42;;;;;;;;;;1943123;74;21623;-46
2022/03/20 00:57:36;;;;;;;2.50;2.30;;;;;;;;;;1943262;74;21067;-47
2022/03/20 01:00:05;;;;;;;4.50;3.17;;;;;;;;;;1943273;74;21134;-48
2022/03/20 01:02:41;;;;;;;3.72;3.20;;;;;;;;;;1943188;74;21538;-47
2022/03/20 01:05:10;;;;;;;4.25;2.72;;;;;;;;;;1943172;74;21143;-46
2022/03/20 01:07:39;;;;;;;5.87;4.03;;;;;;;;;;1943206;74;21090;-48
2022/03/20 01:10:08;;;;;;;4.10;2.83;;;;;;;;;;1943375;74;21126;-50
2022/03/20 01:12:38;;;;;;;3.72;2.77;;;;;;;;;;1943282;74;21126;-46
2022/03/20 01:15:07;;;;;;;3.92;3.42;;;;;;;;;;1943210;74;21126;-46
2022/03/20 01:17:36;;;;;;;6.95;2.27;;;;;;;;;;1943149;74;21076;-46
2022/03/20 01:20:08;;;;;;;3.67;2.45;;;;;;;;;;1943226;74;21021;-48
2022/03/20 01:22:37;;;;;;;3.75;2.77;;;;;;;;;;1943130;74;21506;-46
2022/03/20 01:25:06;;;;;;;6.50;2.45;;;;;;;;;;1943151;74;21099;-46
2022/03/20 01:27:35;;;;;;;2.20;2.00;;;;;;;;;;1943146;74;21032;-46
2022/03/20 01:30:04;;;;;;;3.70;2.83;;;;;;;;;;1943252;74;21099;-46
2022/03/20 01:32:33;;;;;;;2.95;1.82;;;;;;;;;;1916376;74;21058;-47
2022/03/20 01:35:02;;;;;;;3.05;1.95;;;;;;;;;;1898159;75;21104;-47
2022/03/20 01:37:30;;;;;;;2.15;1.95;;;;;;;;;;1898055;75;21030;-46
2022/03/20 01:39:59;;;;;;;3.15;2.17;;;;;;;;;;1898129;75;21034;-48
2022/03/20 01:42:28;;;;;;;3.17;2.02;;;;;;;;;;1898137;75;21046;-47
2022/03/20 01:44:57;;;;;;;3.30;2.33;;;;;;;;;;1898166;75;21073;-46
2022/03/20 01:47:25;;;;;;;3.08;2.65;;;;;;;;;;1897981;75;21163;-46
2022/03/20 01:49:54;;;;;;;1.87;1.72;;;;;;;;;;1898149;75;21043;-47
2022/03/20 01:52:26;;;;;;;3.12;2.83;;;;;;;;;;1897987;75;21042;-48
2022/03/20 01:54:55;;;;;;;2.95;2.65;;;;;;;;;;1898142;75;21116;-46
2022/03/20 01:57:24;;;;;;;2.00;1.57;;;;;;;;;;1898065;75;21113;-46
2022/03/20 01:59:53;;;;;;;1.62;1.52;;;;;;;;;;1898090;75;21046;-47
2022/03/20 02:02:22;;;;;;;2.50;2.20;;;;;;;;;;1898149;75;21062;-47
2022/03/20 02:04:51;;;;;;;5.47;1.98;;;;;;;;;;1898066;75;21046;-47
2022/03/20 02:07:21;;;;;;;2.25;2.05;;;;;;;;;;1897936;75;21113;-46
2022/03/20 02:09:50;;;;;;;1.98;1.62;;;;;;;;;;1898153;75;21124;-46
2022/03/20 02:12:19;;;;;;;2.27;2.08;;;;;;;;;;1898014;75;21054;-46
2022/03/20 02:14:47;;;;;;;3.40;1.77;;;;;;;;;;1898127;75;21042;-47
2022/03/20 02:17:16;;;;;;;1.12;1.05;;;;;;;;;;1898069;75;21113;-49
2022/03/20 02:19:46;;;;;;;1.70;1.60;;;;;;;;;;1898219;75;21038;-48
2022/03/20 02:22:14;;;;;;;1.95;1.75;;;;;;;;;;1898134;75;21035;-46
2022/03/20 02:24:48;;;;;;;2.27;1.65;;;;;;;;;;1898243;75;21108;-46
2022/03/20 02:27:25;;;;;;;1.85;1.60;;;;;;;;;;1897930;75;21559;-47
2022/03/20 02:29:54;;;;;;;3.08;1.92;;;;;;;;;;1898241;75;21546;-47
2022/03/20 02:32:27;;;;;;;3.30;1.85;;;;;;;;;;1897987;74;21137;-46
2022/03/20 02:34:59;;;;;;;2.00;1.80;;;;;;;;;;1898007;75;21564;-46
2022/03/20 02:37:28;;;;;;;1.72;1.32;;;;;;;;;;1898064;75;21034;-46
2022/03/20 02:39:58;;;;;;;2.22;1.77;;;;;;;;;;1898119;75;21065;-46
2022/03/20 02:42:27;;;;;;;1.65;1.35;;;;;;;;;;1897940;75;21105;-46
2022/03/20 02:45:03;;;;;;;2.35;2.15;;;;;;;;;;1898018;75;21116;-47
2022/03/20 02:47:33;;;;;;;2.85;1.82;;;;;;;;;;1897985;75;21003;-47
2022/03/20 02:50:06;;;;;;;3.70;2.10;;;;;;;;;;1898073;75;21035;-47
2022/03/20 02:52:47;;;;;;;1.52;1.17;;;;;;;;;;1897992;75;21026;-47
2022/03/20 02:55:20;;;;;;;2.00;1.50;;;;;;;;;;1898095;75;21121;-46
2022/03/20 02:57:49;;;;;;;0.98;0.98;;;;;;;;;;1897959;75;21480;-48
2022/03/20 03:00:21;;;;;;;1.65;1.52;;;;;;;;;;1898003;75;21464;-46
2022/03/20 03:02:50;;;;;;;2.33;1.67;;;;;;;;;;1897985;75;21558;-47
2022/03/20 03:05:20;;;;;;;2.00;1.82;;;;;;;;;;1898224;75;21006;-48
2022/03/20 03:13:36;;;;;;;1.62;1.52;;;;;;;;;;1898142;75;21132;-47
2022/03/20 03:16:08;;;;;;;2.33;1.77;;;;;;;;;;1898108;75;21078;-46
2022/03/20 03:18:37;;;;;;;2.40;1.98;;;;;;;;;;1898209;75;21096;-47
2022/03/20 03:21:07;;;;;;;3.52;1.72;;;;;;;;;;1898219;75;21027;-46
2022/03/20 03:23:39;;;;;;;2.22;1.45;;;;;;;;;;1898017;75;21034;-47
2022/03/20 03:26:08;;;;;;;2.35;1.60;;;;;;;;;;1898116;75;21054;-46
2022/03/20 03:28:37;;;;;;;3.50;2.77;;;;;;;;;;1898299;75;21078;-46
2022/03/20 03:31:06;;;;;;;1.72;1.60;;;;;;;;;;1898235;75;21116;-46
2022/03/20 03:35:41;;;;;;;3.40;2.12;;;;;;;;;;1904456;74;21058;-46
2022/03/20 03:36:08;;;;;;;2.35;2.15;;;;;;;;;;1903292;75;21089;-46
2022/03/20 03:38:36;;;;;;;2.75;1.87;;;;;;;;;;1908379;75;21272;-47
2022/03/20 03:41:05;;;;;;;5.08;3.47;;;;;;;;;;1908262;75;21390;-46
2022/03/20 03:43:36;;;;;;;3.02;1.67;;;;;;;;;;1908203;75;21018;-47
2022/03/20 03:46:04;;;;;;;3.70;2.72;;;;;;;;;;1908263;75;21115;-46
2022/03/20 03:48:33;;;;;;;2.30;1.70;;;;;;;;;;1908255;75;21108;-46
2022/03/20 03:51:02;;;;;;;2.58;2.22;;;;;;;;;;1908251;75;21042;-47
2022/03/20 03:53:31;;;;;;;2.15;1.95;;;;;;;;;;1908177;75;21041;-47
2022/03/20 03:56:00;;;;;;;3.45;2.85;;;;;;;;;;1908220;75;21041;-47
2022/03/20 03:58:30;;;;;;;4.42;3.75;;;;;;;;;;1906479;75;21066;-46
2022/03/20 04:01:00;;;;;;;3.05;1.92;;;;;;;;;;1908239;75;21123;-47
2022/03/20 04:03:29;;;;;;;2.12;1.67;;;;;;;;;;1908251;75;21006;-47
2022/03/20 04:06:02;;;;;;;4.67;2.72;;;;;;;;;;1908148;75;21038;-46
2022/03/20 04:08:32;;;;;;;3.47;1.82;;;;;;;;;;1908225;75;21175;-46
2022/03/20 04:11:02;;;;;;;1.75;1.65;;;;;;;;;;1908397;75;21460;-47
2022/03/20 04:13:31;;;;;;;1.50;1.40;;;;;;;;;;1908186;75;21108;-46
2022/03/20 04:16:00;;;;;;;2.33;1.77;;;;;;;;;;1908225;75;21042;-48
2022/03/20 04:18:29;;;;;;;1.90;1.80;;;;;;;;;;1908264;75;21132;-46
2022/03/20 04:20:57;;;;;;;4.17;1.98;;;;;;;;;;1908299;75;21156;-47
2022/03/20 04:26:14;;;;;;;4.42;2.15;;;;;;;;;;1908202;75;21077;-48
2022/03/20 04:28:44;;;;;;;2.58;2.10;;;;;;;;;;1908051;75;21006;-49
2022/03/20 04:31:15;;;;;;;4.53;2.87;;;;;;;;;;1908195;75;21141;-47
2022/03/20 04:33:44;;;;;;;1.42;1.20;;;;;;;;;;1923619;74;21588;-47
2022/03/20 04:36:12;;;;;;;1.60;1.50;;;;;;;;;;1943210;74;21028;-46
2022/03/20 04:38:41;;;;;;;1.98;1.82;;;;;;;;;;1943095;74;21001;-47
2022/03/20 04:41:10;;;;;;;1.67;1.52;;;;;;;;;;1943264;74;21036;-46
2022/03/20 04:43:40;;;;;;;2.17;1.90;;;;;;;;;;1943108;74;21173;-46
2022/03/20 04:46:08;;;;;;;2.98;2.08;;;;;;;;;;1943059;74;21041;-47
2022/03/20 04:59:45;;;;;;;1.82;1.37;;;;;;;;;;1943182;74;21044;-46
2022/03/20 05:02:14;;;;;;;5.97;2.72;;;;;;;;;;1943039;74;21044;-46
2022/03/20 05:04:43;;;;;;;1.92;1.55;;;;;;;;;;1943120;74;21114;-47
2022/03/20 05:07:11;;;;;;;4.47;2.60;;;;;;;;;;1943076;74;21020;-47
2022/03/20 05:15:14;;;;;;;1.67;1.57;;;;;;;;;;1943174;74;21048;-46
2022/03/20 05:17:43;;;;;;;6.05;2.92;;;;;;;;;;1943228;74;21029;-46
2022/03/20 05:20:12;;;;;;;2.58;1.87;;;;;;;;;;1943090;74;21107;-47
2022/03/20 05:22:41;;;;;;;4.95;1.70;;;;;;;;;;1942986;74;21475;-46
2022/03/20 05:25:10;;;;;;;3.17;1.55;;;;;;;;;;1943139;74;21021;-47
2022/03/20 05:27:39;;;;;;;3.90;2.20;;;;;;;;;;1943130;74;21017;-46
2022/03/20 05:30:08;;;;;;;2.87;2.05;;;;;;;;;;1943125;74;21076;-46
2022/03/20 05:32:38;;;;;;;4.58;2.05;;;;;;;;;;1943020;74;21052;-46
2022/03/20 05:35:09;;;;;;;2.42;1.95;;;;;;;;;;1938108;74;21126;-46
2022/03/20 05:37:38;;;;;;;1.37;1.27;;;;;;;;;;1937298;74;21063;-46
2022/03/20 05:40:07;;;;;;;2.70;2.37;;;;;;;;;;1937341;74;21081;-47
2022/03/20 05:42:39;;;;;;;3.87;1.72;;;;;;;;;;1937350;74;21110;-47
2022/03/20 05:45:10;;;;;;;1.62;1.52;;;;;;;;;;1937341;74;21056;-47
2022/03/20 05:47:38;;;;;;;1.55;1.37;;;;;;;;;;1937223;74;21099;-47
2022/03/20 05:50:08;;;;;;;3.15;2.40;;;;;;;;;;1937065;74;21095;-48
2022/03/20 05:52:37;;;;;;;2.58;1.95;;;;;;;;;;1937117;74;21123;-46
2022/03/20 05:55:06;;;;;;;3.33;1.90;;;;;;;;;;1937165;74;21049;-46
2022/03/20 06:00:26;;;;;;;2.60;1.98;;;;;;;;;;1937244;74;21013;-46
2022/03/20 06:02:55;;;;;;;4.67;2.15;;;;;;;;;;1937278;74;21034;-47
2022/03/20 06:05:23;;;;;;;6.87;2.58;;;;;;;;;;1937349;74;21095;-47
2022/03/20 06:07:52;;;;;;;2.12;1.45;;;;;;;;;;1937142;74;21040;-50
2022/03/20 06:10:21;;;;;;;9.93;1.92;;;;;;;;;;1937178;74;21110;-49
2022/03/20 06:12:50;;;;;;;1.85;1.75;;;;;;;;;;1937106;74;21106;-50
2022/03/20 06:15:19;;;;;;;3.27;1.62;;;;;;;;;;1937302;74;21041;-50
2022/03/20 06:17:48;;;;;;;6.28;2.30;;;;;;;;;;1937243;74;21154;-48
2022/03/20 06:20:17;;;;;;;5.20;2.30;;;;;;;;;;1937337;74;21037;-47
2022/03/20 06:22:49;;;;;;;3.52;2.40;;;;;;;;;;1937246;74;21078;-49
2022/03/20 06:25:16;;;;;;;4.03;2.60;;;;;;;;;;1937234;73;21442;-47
2022/03/20 06:27:50;;;;;;;2.85;1.82;;;;;;;;;;1937200;74;21049;-47
2022/03/20 06:30:19;;;;;;;1.22;1.15;;;;;;;;;;1937164;74;21023;-47
2022/03/20 06:32:48;;;;;;;3.62;2.83;;;;;;;;;;1937148;74;21029;-47
2022/03/20 06:35:20;;;;;;;5.47;2.85;;;;;;;;;;1909621;74;21057;-47
2022/03/20 06:37:57;;;;;;;2.75;2.15;;;;;;;;;;1898027;75;21101;-46
2022/03/20 06:40:22;;;;;;;5.53;2.10;;;;;;;;;;1897223;75;21023;-48
2022/03/20 06:42:52;;;;;;;2.30;1.95;;;;;;;;;;1898288;75;21034;-49
2022/03/20 06:45:20;;;;;;;2.40;2.02;;;;;;;;;;1898268;75;21054;-47
2022/03/20 06:47:49;;;;;;;3.15;2.33;;;;;;;;;;1898197;75;21104;-48
2022/03/20 06:50:18;;;;;;;5.83;2.75;;;;;;;;;;1898350;75;21378;-49
2022/03/20 06:52:47;;;;;;;3.25;2.37;;;;;;;;;;1898295;75;21089;-47
2022/03/20 06:55:16;;;;;;;6.95;3.62;;;;;;;;;;1898172;75;21034;-48
2022/03/20 06:57:45;;;;;;;5.97;3.33;;;;;;;;;;1898216;75;21034;-49
2022/03/20 07:00:16;;;;;;;3.25;2.00;;;;;;;;;;1898176;75;21132;-47
2022/03/20 07:02:47;;;;;;;5.15;2.70;;;;;;;;;;1896644;75;21072;-48
2022/03/20 07:05:16;;;;;;;7.33;3.35;;;;;;;;;;1898324;75;21089;-49
2022/03/20 07:07:44;;;;;;;4.05;2.30;;;;;;;;;;1898154;75;21179;-47
2022/03/20 07:10:16;;;;;;;3.10;2.80;;;;;;;;;;1898258;75;21034;-47
2022/03/20 07:12:45;;;;;;;3.20;2.55;;;;;;;;;;1898204;75;21022;-47
2022/03/20 07:15:13;;;;;;;5.17;2.67;;;;;;;;;;1898201;75;21108;-47
2022/03/20 07:17:42;;;;;;;2.95;2.65;;;;;;;;;;1898098;75;21087;-48
2022/03/20 07:20:11;;;;;;;4.78;3.58;;;;;;;;;;1898358;75;21006;-48
2022/03/20 07:22:40;;;;;;;4.90;3.17;;;;;;;;;;1898155;75;21003;-47
2022/03/20 07:30:44;;;;;;;2.27;2.08;;;;;;;;;;1898239;75;21066;-50
2022/03/20 07:33:13;;;;;;;8.50;3.72;;;;;;;;;;1898282;75;20999;-48
2022/03/20 07:35:42;;;;;;;3.45;2.58;;;;;;;;;;1928355;74;21114;-48
2022/03/20 07:38:11;;;;;;;4.10;2.47;;;;;;;;;;1943222;74;21033;-49
2022/03/20 07:40:40;;;;;;;2.90;2.60;;;;;;;;;;1943154;74;21037;-47
2022/03/20 07:43:09;;;;;;;4.87;2.80;;;;;;;;;;1943145;74;21033;-49
2022/03/20 07:45:38;;;;;;;5.10;3.10;;;;;;;;;;1943165;74;21150;-48
2022/03/20 07:48:07;;;;;;;3.25;2.40;;;;;;;;;;1943164;74;21029;-47
2022/03/20 07:50:36;;;;;;;3.90;2.75;;;;;;;;;;1943128;74;21020;-49
2022/03/20 07:53:04;;;;;;;3.22;2.33;;;;;;;;;;1943242;74;21090;-49
2022/03/20 07:55:34;;;;;;;4.22;2.75;;;;;;;;;;1943287;74;21017;-48
2022/03/20 07:58:03;;;;;;;3.98;1.92;;;;;;;;;;1943177;74;21083;-48
2022/03/20 08:00:32;;;;;;;6.78;2.90;;;;;;;;;;1943202;74;21068;-50
2022/03/20 08:03:01;;;;;;;6.05;2.55;;;;;;;;;;1943080;74;21052;-50
2022/03/20 08:05:30;;;;;;;2.80;2.33;;;;;;;;;;1943136;74;21095;-48
2022/03/20 08:08:00;;;;;;;6.30;3.15;;;;;;;;;;1943178;74;21032;-47
2022/03/20 08:10:29;;;;;;;4.83;2.85;;;;;;;;;;1943251;74;21475;-49
2022/03/20 08:12:58;;;;;;;5.55;2.10;;;;;;;;;;1943126;74;21142;-47
2022/03/20 08:15:27;;;;;;;2.27;1.90;;;;;;;;;;1943167;74;21001;-47
2022/03/20 08:17:56;;;;;;;2.90;1.95;;;;;;;;;;1943086;74;21032;-47
2022/03/20 08:20:24;;;;;;;6.33;2.27;;;;;;;;;;1943203;74;21099;-51
2022/03/20 08:22:53;;;;;;;2.72;2.17;;;;;;;;;;1943159;74;21037;-48
2022/03/20 08:25:23;;;;;;;4.28;2.33;;;;;;;;;;1943248;74;21102;-51
2022/03/20 08:27:53;;;;;;;6.55;2.77;;;;;;;;;;1943078;74;21021;-47
2022/03/20 08:30:22;;;;;;;3.67;2.20;;;;;;;;;;1943118;74;21029;-47
2022/03/20 08:32:52;;;;;;;3.83;2.58;;;;;;;;;;1943266;74;21079;-47
2022/03/20 08:35:21;;;;;;;2.40;2.25;;;;;;;;;;1929163;74;21141;-47
2022/03/20 08:37:52;;;;;;;3.25;2.17;;;;;;;;;;1898142;75;21022;-47
2022/03/20 08:40:21;;;;;;;5.47;2.55;;;;;;;;;;1898147;75;21086;-46
2022/03/20 08:42:54;;;;;;;5.97;3.22;;;;;;;;;;1898276;75;21042;-47
2022/03/20 08:45:23;;;;;;;3.25;2.05;;;;;;;;;;1898348;75;21035;-46
2022/03/20 08:47:53;;;;;;;3.17;2.55;;;;;;;;;;1898248;75;21058;-46
2022/03/20 08:50:21;;;;;;;5.72;2.17;;;;;;;;;;1898323;75;21020;-47
2022/03/20 08:52:51;;;;;;;2.35;1.90;;;;;;;;;;1898263;75;21042;-46
2022/03/20 08:55:19;;;;;;;2.90;1.92;;;;;;;;;;1898294;75;21027;-48
2022/03/20 08:57:48;;;;;;;2.55;2.20;;;;;;;;;;1898040;75;22231;-46
2022/03/20 09:00:18;;;;;;;7.80;3.33;;;;;;;;;;1898161;75;21022;-47
2022/03/20 09:02:48;;;;;;;9.90;3.12;;;;;;;;;;1898081;75;21093;-46
2022/03/20 09:05:18;;;;;;;3.98;2.92;;;;;;;;;;1898023;75;20990;-48
2022/03/20 09:07:47;;;;;;;5.70;2.92;;;;;;;;;;1898010;75;21050;-47
2022/03/20 09:10:16;;;;;;;5.25;3.62;;;;;;;;;;1898001;75;21011;-46
2022/03/20 09:12:46;;;;;;;3.47;2.52;;;;;;;;;;1898055;75;21108;-48
2022/03/20 09:15:15;;;;;;;3.42;2.12;;;;;;;;;;1898085;75;21022;-47
2022/03/20 09:20:32;;;;;;;2.52;2.33;;;;;;;;;;1898026;75;21116;-47
2022/03/20 09:23:00;;;;;;;5.85;3.25;;;;;;;;;;1897909;75;21076;-46
2022/03/20 09:25:29;;;;;;;2.87;2.17;;;;;;;;;;1897974;75;21074;-47
2022/03/20 09:27:58;;;;;;;3.22;1.95;;;;;;;;;;1897646;75;21074;-46
2022/03/20 09:30:27;;;;;;;2.52;2.00;;;;;;;;;;1898003;75;21042;-48
2022/03/20 09:32:57;;;;;;;2.90;2.15;;;;;;;;;;1897802;75;21108;-50
2022/03/20 09:35:26;;;;;;;3.80;2.45;;;;;;;;;;1897973;75;22640;-48
2022/03/20 09:37:55;;;;;;;3.60;2.77;;;;;;;;;;1898041;75;21023;-47
2022/03/20 09:40:24;;;;;;;5.62;2.60;;;;;;;;;;1898063;75;21113;-48
2022/03/20 09:42:54;;;;;;;2.62;2.42;;;;;;;;;;1897959;75;21170;-50
2022/03/20 09:45:23;;;;;;;7.28;3.05;;;;;;;;;;1897955;75;21070;-47
2022/03/20 09:47:52;;;;;;;2.45;1.70;;;;;;;;;;1896748;75;21117;-47
2022/03/20 09:50:21;;;;;;;2.83;1.85;;;;;;;;;;1897213;75;21104;-45
2022/03/20 09:52:50;;;;;;;2.30;1.67;;;;;;;;;;1897385;75;21085;-46
2022/03/20 09:55:18;;;;;;;3.52;2.22;;;;;;;;;;1901985;75;21097;-47
2022/03/20 09:57:47;;;;;;;5.08;2.58;;;;;;;;;;1904086;75;21019;-46
2022/03/20 10:00:17;;;;;;;5.08;2.40;;;;;;;;;;1903997;75;21032;-47
2022/03/20 10:02:46;;;;;;;4.45;2.70;;;;;;;;;;1903950;75;21469;-47
2022/03/20 10:05:16;;;;;;;2.27;1.82;;;;;;;;;;1904094;75;21008;-46
2022/03/20 10:07:45;;;;;;;5.47;2.37;;;;;;;;;;1903737;75;21145;-46
2022/03/20 10:10:15;;;;;;;5.50;2.77;;;;;;;;;;1903804;75;21011;-46
2022/03/20 10:12:47;;;;;;;3.35;2.20;;;;;;;;;;1903988;75;21102;-46
2022/03/20 10:15:30;;;;;;;2.92;2.52;;;;;;;;;;1904100;75;21093;-46
2022/03/20 10:18:17;;;;;;;6.08;2.80;;;;;;;;;;1904111;75;21050;-46
2022/03/20 10:20:52;;;;;;;9.05;2.45;;;;;;;;;;1904104;75;20991;-46
2022/03/20 10:23:28;;;;;;;2.75;1.95;;;;;;;;;;1903235;75;21035;-47
2022/03/20 10:25:57;;;;;;;8.00;3.67;;;;;;;;;;1903954;75;21051;-46
2022/03/20 10:28:27;;;;;;;2.27;2.08;;;;;;;;;;1904007;75;21031;-47
2022/03/20 10:30:56;;;;;;;2.70;2.12;;;;;;;;;;1903528;75;21073;-47
2022/03/20 10:33:25;;;;;;;3.25;1.87;;;;;;;;;;1904084;75;21031;-50
2022/03/20 10:36:11;;;;;;;2.87;2.25;;;;;;;;;;1908387;73;21015;-46
2022/03/20 13:12:03;;;;;;;2.52;2.33;;;5.10;41.80;;;;;;1958315;73;25602;-46
2022/03/20 13:13:48;;;;;;;2.50;2.17;;;5.10;42.30;;;;;;1895995;75;21090;-47
2022/03/20 13:16:17;;;;;;;2.10;1.85;;;5.20;41.30;;;;;;1917613;75;20999;-45
2022/03/20 13:18:48;;;;;;;2.08;1.67;;;5.20;41.90;;;;;;1917643;75;21023;-47
2022/03/20 13:21:19;;;;;;;3.90;1.80;;;5.20;43.40;;;;;;1917527;75;21078;-46
2022/03/20 13:23:49;;;;;;;3.83;2.25;;;5.30;43.70;;;;;;1917583;75;21528;-45
2022/03/20 13:26:22;;;;;;;3.80;2.90;;;5.30;42.60;;;;;;1917494;75;21058;-45
2022/03/20 13:28:52;;;;;;;2.95;1.90;;;5.40;43.20;;;;;;1917467;75;21018;-45
2022/03/20 13:36:39;;;;;;;2.27;1.85;;;5.40;41.50;;;;;;1958130;73;25799;-45
2022/03/20 16:50:11;;;;;;;2.30;1.80;;;3.10;52.10;;;;;;1958419;73;25509;-46
2022/03/20 17:00:41;;;;;;;2.47;1.70;;;2.90;52.90;;;;;;1972914;73;25626;-46
2022/03/20 17:05:05;;;;;;;3.12;2.12;;;2.90;53.30;;;;;;1973032;73;27906;-45
2022/03/20 17:07:34;;;;;;;4.03;2.25;;;2.80;53.90;;;;;;1948343;73;21121;-46
2022/03/20 17:10:09;;;;;;;2.22;1.80;;;2.80;54.00;;;;;;1948490;73;21128;-46
2022/03/20 17:12:38;;;;;;;2.12;1.87;;;;;;;;;;1948724;73;21042;-45
2022/03/20 17:15:07;;;;;;;3.20;2.45;;;;;;;;;;1948404;73;21018;-46
2022/03/20 17:17:36;;;;;;;4.20;2.62;;;;;;;;;;1948316;73;21085;-45
2022/03/20 17:20:05;;;;;;;3.42;2.15;;;;;;;;;;1948454;73;21082;-45
2022/03/20 17:22:36;;;;;;;6.65;2.80;;;;;;;;;;1948378;73;21398;-46
2022/03/20 17:25:05;;;;;;;7.58;2.70;;;;;;;;;;1948353;73;21152;-46
2022/03/20 17:27:34;;;;;;;2.67;2.10;;;;;;;;;;1948436;73;21140;-45
2022/03/20 17:30:03;;;;;;;3.20;2.30;;;;;;;;;;1948286;73;21058;-46
2022/03/20 17:32:32;;;;;;;4.92;3.08;;;;;;;;;;1948476;73;21022;-45
2022/03/20 17:35:01;;;;;;;1.62;1.52;;;;;;;;;;1948495;73;21019;-44
2022/03/20 17:37:30;;;;;;;4.90;2.30;;;;;;;;;;1948204;73;21074;-44
2022/03/20 17:39:58;;;;;;;2.75;1.85;;;;;;;;;;1948492;73;21077;-47
2022/03/20 17:42:27;;;;;;;2.30;1.92;;;;;;;;;;1948461;73;21035;-45
2022/03/20 17:44:56;;;;;;;3.00;2.52;;;;;;;;;;1948207;73;21035;-45
2022/03/20 17:47:25;;;;;;;3.20;2.83;;;;;;;;;;1948432;73;21092;-45
2022/03/20 17:49:53;;;;;;;1.70;1.52;;;;;;;;;;1948482;73;21132;-46
2022/03/20 17:52:28;;;;;;;3.25;2.55;;;;;;;;;;1948323;73;21031;-46
2022/03/20 17:54:53;;;;;;;4.45;3.00;;;;;;;;;;1947134;73;21464;-46
2022/03/20 17:57:22;;;;;;;1.62;1.52;;;;;;;;;;1949178;73;21105;-46
2022/03/20 17:59:51;;;;;;;4.00;2.95;;;;;;;;;;1949165;73;21093;-45
2022/03/20 18:07:54;;;;;;;5.92;2.40;;;;;;;;;;1943831;74;21102;-46
2022/03/20 18:10:24;;;;;;;2.90;2.10;;;;;;;;;;1943806;74;21015;-46
2022/03/20 18:12:53;;;;;;;4.58;2.45;;;;;;;;;;1942755;73;21042;-45
2022/03/20 18:15:23;;;;;;;3.12;2.55;;;;;;;;;;1943475;73;21081;-46
2022/03/20 18:17:52;;;;;;;4.42;2.47;;;;;;;;;;1943271;74;20991;-46
2022/03/20 18:20:22;;;;;;;2.55;2.12;;;;;;;;;;1943135;74;21068;-45
2022/03/20 18:22:52;;;;;;;2.15;1.90;;;;;;;;;;1943144;73;21019;-45
2022/03/20 18:25:21;;;;;;;1.65;1.42;;;;;;;;;;1943221;74;21120;-46
2022/03/20 18:27:50;;;;;;;2.58;2.25;;;;;;;;;;1943136;74;21098;-45
2022/03/20 18:30:19;;;;;;;2.80;1.92;;;;;;;;;;1943134;74;21039;-45
2022/03/20 18:32:48;;;;;;;2.37;1.60;;;;;;;;;;1943128;73;20999;-45
2022/03/20 18:35:17;;;;;;;2.65;2.33;;;;;;;;;;1943223;74;21030;-46
2022/03/20 18:37:46;;;;;;;1.75;1.62;;;;;;;;;;1943423;74;21027;-46
2022/03/20 18:40:15;;;;;;;2.37;2.10;;;;;;;;;;1943233;74;21027;-46
2022/03/20 18:42:43;;;;;;;3.47;2.40;;;;;;;;;;1943419;74;21089;-46
2022/03/20 18:45:12;;;;;;;2.20;1.92;;;;;;;;;;1943294;74;21007;-45
2022/03/20 18:47:42;;;;;;;2.30;2.10;;;;;;;;;;1943352;74;21031;-46
2022/03/20 18:50:13;;;;;;;3.65;1.87;;;;;;;;;;1943242;74;21067;-45
2022/03/20 18:52:44;;;;;;;2.27;1.82;;;;;;;;;;1943271;74;21089;-46
2022/03/20 18:55:13;;;;;;;2.22;2.02;;;;;;;;;;1943196;74;21003;-45
2022/03/20 18:57:41;;;;;;;3.35;2.17;;;;;;;;;;1943238;74;21023;-46
2022/03/20 19:00:12;;;;;;;4.58;2.58;;;;;;;;;;1943162;74;21621;-45
2022/03/20 19:02:41;;;;;;;1.72;1.62;;;;;;;;;;1943163;74;21151;-45
2022/03/20 19:05:10;;;;;;;3.15;2.42;;;;;;;;;;1943063;74;21047;-45
2022/03/20 19:07:40;;;;;;;4.08;2.25;;;;;;;;;;1943354;74;20995;-45
2022/03/20 19:10:11;;;;;;;2.98;2.58;;;;;;;;;;1943111;74;21073;-46
2022/03/20 19:12:43;;;;;;;1.87;1.77;;;;;;;;;;1943247;74;21414;-45
2022/03/20 19:15:12;;;;;;;3.25;2.05;;;;;;;;;;1943262;74;21090;-45
2022/03/20 19:17:46;;;;;;;2.58;2.10;;;;;;;;;;1943268;74;21128;-45
2022/03/20 19:20:11;;;;;;;1.67;1.57;;;;;;;;;;1942535;74;21505;-46
2022/03/20 19:22:40;;;;;;;2.37;2.02;;;;;;;;;;1943263;74;21058;-47
2022/03/20 19:25:09;;;;;;;2.55;2.05;;;;;;;;;;1943083;74;21011;-46
2022/03/20 19:27:39;;;;;;;2.17;1.77;;;;;;;;;;1943069;74;21016;-45
2022/03/20 19:30:09;;;;;;;2.08;1.30;;;;;;;;;;1943256;74;21097;-46
2022/03/20 19:32:38;;;;;;;2.72;1.65;;;;;;;;;;1943323;74;21035;-45
2022/03/20 19:40:40;;;;;;;2.00;1.90;;;;;;;;;;1943169;74;21140;-45
2022/03/20 19:43:09;;;;;;;3.45;2.67;;;;;;;;;;1943193;74;21012;-45
2022/03/20 19:45:38;;;;;;;3.50;2.12;;;;;;;;;;1943169;74;21091;-45
2022/03/20 19:48:06;;;;;;;2.83;1.98;;;;;;;;;;1943266;74;21077;-45
2022/03/20 19:50:36;;;;;;;2.90;2.58;;;;;;;;;;1943137;74;21015;-45
2022/03/20 19:53:05;;;;;;;2.60;2.20;;;;;;;;;;1943211;74;21088;-46
2022/03/20 19:55:34;;;;;;;2.40;2.15;;;;;;;;;;1943107;74;21023;-46
2022/03/20 19:58:07;;;;;;;2.65;1.50;;;;;;;;;;1943110;74;20999;-45
2022/03/20 20:00:35;;;;;;;2.10;1.90;;;;;;;;;;1943144;74;21081;-46
2022/03/20 20:03:05;;;;;;;2.35;1.90;;;;;;;;;;1943256;74;21035;-46
2022/03/20 20:05:34;;;;;;;2.02;1.87;;;;;;;;;;1938789;73;21043;-45
2022/03/20 20:08:02;;;;;;;1.75;1.42;;;;;;;;;;1935693;74;20995;-46
2022/03/20 20:10:31;;;;;;;2.30;2.08;;;;;;;;;;1935592;74;21012;-46
2022/03/20 20:14:44;;;;;;;2.08;1.90;;;;;;;;;;1935768;74;21028;-45
2022/03/20 20:15:30;;;;;;;5.45;3.00;;;;;;;;;;1931676;74;21528;-45
2022/03/20 20:17:59;;;;;;;4.25;2.55;;;;;;;;;;1935740;74;21007;-46
2022/03/20 20:20:28;;;;;;;2.95;1.80;;;;;;;;;;1935618;74;21028;-46
2022/03/20 20:22:56;;;;;;;3.47;2.35;;;;;;;;;;1935756;74;21085;-45
2022/03/20 20:25:25;;;;;;;2.00;1.85;;;;;;;;;;1935709;74;21097;-45
2022/03/20 20:27:54;;;;;;;3.08;1.62;;;;;;;;;;1935632;74;21081;-46
2022/03/20 20:30:23;;;;;;;3.47;2.52;;;;;;;;;;1935713;74;21014;-45
2022/03/20 20:32:53;;;;;;;2.02;1.87;;;;;;;;;;1935629;74;21023;-45
2022/03/20 20:35:21;;;;;;;3.15;2.75;;;;;;;;;;1935586;74;21141;-46
2022/03/20 20:37:50;;;;;;;2.72;1.95;;;;;;;;;;1935542;74;21059;-46
2022/03/20 20:40:19;;;;;;;2.33;2.12;;;;;;;;;;1935673;74;21027;-45
2022/03/20 20:42:48;;;;;;;3.58;2.77;;;;;;;;;;1935637;74;21081;-46
2022/03/20 20:45:17;;;;;;;2.37;2.08;;;;;;;;;;1935680;74;21027;-45
2022/03/20 20:47:46;;;;;;;2.67;1.65;;;;;;;;;;1935576;74;21113;-45
2022/03/20 20:50:14;;;;;;;3.08;1.67;;;;;;;;;;1935687;74;21032;-46
2022/03/20 20:52:44;;;;;;;2.35;1.80;;;;;;;;;;1935610;74;21031;-45
2022/03/20 20:55:13;;;;;;;2.22;1.55;;;;;;;;;;1935613;74;21097;-45
2022/03/20 20:57:41;;;;;;;2.45;2.22;;;;;;;;;;1935722;74;21043;-46
2022/03/20 21:00:11;;;;;;;3.15;2.77;;;;;;;;;;1935613;74;21075;-46
2022/03/20 21:02:39;;;;;;;2.77;2.52;;;;;;;;;;1935568;74;21020;-45
2022/03/20 21:05:08;;;;;;;3.55;2.85;;;;;;;;;;1938051;74;21051;-45
2022/03/20 21:13:10;;;;;;;6.42;2.40;;;;;;;;;;1948695;74;21039;-46
2022/03/20 21:15:40;;;;;;;5.78;3.47;;;;;;;;;;1948779;74;21022;-46
2022/03/20 21:18:09;;;;;;;4.75;2.37;;;;;;;;;;1948661;74;21018;-45
2022/03/20 21:20:38;;;;;;;1.77;1.57;;;;;;;;;;1948688;74;21011;-45
2022/03/20 21:23:08;;;;;;;2.40;2.20;;;;;;;;;;1948664;74;21035;-45
2022/03/20 21:25:36;;;;;;;4.62;2.90;;;;;;;;;;1948707;74;21097;-46
2022/03/20 21:28:06;;;;;;;3.55;2.30;;;;;;;;;;1948647;74;21022;-45
2022/03/20 21:30:35;;;;;;;3.05;2.08;;;;;;;;;;1948765;74;21031;-46
2022/03/20 21:33:05;;;;;;;2.70;2.47;;;;;;;;;;1948741;74;21023;-45
2022/03/20 21:35:34;;;;;;;2.50;2.30;;;;;;;;;;1948748;74;20999;-45
2022/03/20 21:38:10;;;;;;;2.33;2.05;;;;;;;;;;1948628;74;21043;-45
2022/03/20 21:40:34;;;;;;;3.80;3.30;;;;;;;;;;1947116;74;21583;-45
2022/03/20 21:43:06;;;;;;;1.82;1.72;;;;;;;;;;1948669;74;21035;-45